KSJS

Big Sandy Regional Airport

Prestonsburg, Kentucky, USA
METAR KSJS 212335Z AUTO 22004KT 10SM SCT060 25/22 A2979 RMK AO2 T02510221
Observed Flight Rules
Jun-21 @ 23:35 UTC (22 minutes ago) Visual Flight Rules
Wind Visibility Clouds
220° at 4 knots 10 miles
  • Scattered at 6,000' AGL
Temperatures Readings
Current 25°C / 77°F
Dewpoint 22°C / 72°F
Humidity 83%
Altimeter 29.79" Hg
Pressure 1009 hPa
Elevation 372
METAR KSJS 212335Z AUTO 22004KT 10SM SCT060 25/22 A2979 RMK AO2 T02510221
Observed Flight Rules
Jun-21 @ 23:35 UTC
(22 minutes ago)
VFR
Wind Visibility
220° at 4 knots 10 miles
Clouds
  • Scattered at 6,000' AGL
Temperature Dewpoint
25°C / 77°F 22°C / 72°F
Humidity Altimeter Pressure
83% 29.79" Hg 1009 hPa